Pike Peak HPC :: Kit Carson III

liberation: 2021-10-16  07:00     latitude: 38.764767     longitude: -102.799133 42 birds
# LOFT PRING MILES ARRIVAL SPEED ToWin
1 RODOLFO DIAZ AU21-PUEB-21110 104.096 2021-10-16 09:24:21.940 1269.058 00:00:00
2 YORDAN MEDINA AU21-PPH-1747 106.103 2021-10-16 09:27:15.106 1268.175 00:00:06
3 RODOLFO DIAZ AU21-PUEB-21117 104.096 2021-10-16 09:24:31.422 1267.671 00:00:09
4 YORDAN MEDINA AU21-PPH-1757 106.103 2021-10-16 09:27:18.749 1267.652 00:00:10
5 RODOLFO DIAZ AU21-PPH-1703 104.096 2021-10-16 09:24:41.929 1266.136 00:00:20
6 YORDAN MEDINA AU21-PPH-1561 106.103 2021-10-16 09:27:58.204 1262.018 00:00:49
7 YORDAN MEDINA AU21-PPH-1708 106.103 2021-10-16 09:29:53.570 1245.830 00:02:45
8 YORDAN MEDINA AU21-PPH-1756 106.103 2021-10-16 09:29:53.694 1245.813 00:02:45
9 FRANK LOPEZ AU21-PPH-1431 107.005 2021-10-16 09:32:34.523 1234.335 00:04:10
10 FRANK LOPEZ AU21-PPH-1546 107.005 2021-10-16 09:32:52.457 1231.922 00:04:28
11 FRANK LOPEZ AU21-PPH-1434 107.005 2021-10-16 09:32:58.604 1231.097 00:04:35
12 YORDAN MEDINA AU21-PUEB-21153 106.103 2021-10-16 09:31:49.991 1229.909 00:04:41
13 RODOLFO DIAZ AU21-PUEB-21174 104.096 2021-10-16 09:30:05.561 1220.635 00:05:44
14 YORDAN MEDINA AU21-PPH-1119 106.103 2021-10-16 09:42:44.600 1147.457 00:15:36
15 RODOLFO DIAZ AU21-PUEB-21188 104.096 2021-10-16 09:41:24.461 1135.066 00:17:03
16 YORDAN MEDINA AU21-PUEB-21194 106.103 2021-10-16 09:46:27.356 1121.864 00:19:18
17 FRANK LOPEZ AU21-PPH-1418 107.005 2021-10-16 09:51:08.426 1100.436 00:22:44
18 RAFAEL TARAJANO AU21-FOYS-2543 98.329 2021-10-16 09:41:39.491 1070.520 00:25:17
19 RAFAEL TARAJANO AU21-PPH-1257 98.329 2021-10-16 09:42:41.864 1063.680 00:26:20
20 RAFAEL TARAJANO AU21-PPH-1253 98.329 2021-10-16 09:43:36.408 1057.770 00:27:14
21 RAFAEL TARAJANO AU21-PPH-1238 98.329 2021-10-16 09:44:07.325 1054.449 00:27:45
22 YORDAN MEDINA AU21-PUEB-21046 106.103 2021-10-16 09:58:38.331 1045.355 00:31:29
23 FRANK LOPEZ AU21-FOYS-2519 107.005 2021-10-16 10:03:03.589 1028.785 00:34:40
24 RAFAEL TARAJANO AU21-PPH-1551 98.329 2021-10-16 09:48:19.843 1028.085 00:31:58
25 FRANK LOPEZ AU21-PPH-1818 107.005 2021-10-16 10:05:02.931 1017.727 00:36:39
26 RAFAEL TARAJANO AU21-PPH-1248 98.329 2021-10-16 09:52:08.383 1005.336 00:35:46
27 RODOLFO DIAZ AU21-PUEB-21149 104.096 2021-10-16 10:04:11.463 994.665 00:39:50
28 RODOLFO DIAZ AU21-PUEB-21140 104.096 2021-10-16 10:04:13.242 994.505 00:39:51
29 RAFAEL TARAJANO AU21-PPH-1240 98.329 2021-10-16 10:18:36.771 871.335 01:02:15
30 GERARDO CRUZ AU21-PPH-1785 112.06 2021-10-16 10:48:10.672 864.348 01:12:46
31 RODOLFO DIAZ AU21-PUEB-21103 104.096 2021-10-16 10:36:32.015 846.097 01:12:10
32 FRANK LOPEZ AU21-PPH-1414 107.005 2021-10-16 13:19:47.978 495.864 03:51:24
33 GERARDO CRUZ AU21-FOYS-33424 112.06 2021-10-16 13:45:04.444 486.886 04:09:40
34 FRANK LOPEZ AU21-PPH-1421 107.005 2021-10-16 15:52:40.411 353.555 06:24:16
35 FRANK LOPEZ AU21-PPH-1117 106.332 2021-10-17 17:09:55.379 139.846 19:50:45
DWIGHT BAKER AU21-FOYS-2523 0 0000-00-00 00:00:00.000 0.000 00:00:00
DWIGHT BAKER AU21-PPH-1658 0 0000-00-00 00:00:00.000 0.000 00:00:00
DWIGHT BAKER AU21-PPH-1668 0 0000-00-00 00:00:00.000 0.000 00:00:00
DWIGHT BAKER AU21-PPH-1675 0 0000-00-00 00:00:00.000 0.000 00:00:00
FRANK LOPEZ AU21-PPH-1415 0 0000-00-00 00:00:00.000 0.000 00:00:00
GERARDO CRUZ AU21-PPH-1787 0 0000-00-00 00:00:00.000 0.000 00:00:00
RODOLFO DIAZ AU21-PUEB-21049 0 0000-00-00 00:00:00.000 0.000 00:00:00